Time;durP1;ratioP1;P1;durP2;ratioP2;P2;SDS_P1;SDS_P2;PMS_P1;PMS_P2;Temp;Humidity;BMP_temperature;BMP_pressure;BME280_temperature;BME280_humidity;BME280_pressure;Samples;Min_cycle;Max_cycle;Signal;HPM_P1;HPM_P2
2023/02/16 00:01:52;;;;;;;19.43;14.20;;;-1.30;99.90;;;;;;5026737;28;20292;-47
2023/02/16 00:04:21;;;;;;;25.77;16.17;;;-1.30;99.90;;;;;;5036592;28;20203;-47
2023/02/16 00:06:49;;;;;;;21.40;13.80;;;-1.20;99.90;;;;;;5040465;28;20202;-48
2023/02/16 00:09:16;;;;;;;21.07;14.47;;;-1.20;99.90;;;;;;5038761;28;20201;-47
2023/02/16 00:14:33;;;;;;;23.07;14.83;;;-1.20;99.90;;;;;;5035037;28;20231;-48
2023/02/16 00:17:00;;;;;;;24.10;15.17;;;-1.20;99.90;;;;;;5029159;28;20253;-47
2023/02/16 00:19:29;;;;;;;24.63;16.20;;;-1.20;99.90;;;;;;5028257;28;20245;-47
2023/02/16 00:21:57;;;;;;;26.10;16.43;;;-1.20;99.90;;;;;;5039394;28;20285;-47
2023/02/16 00:24:27;;;;;;;28.17;17.27;;;-1.20;99.90;;;;;;5030849;28;20195;-48
2023/02/16 00:26:54;;;;;;;23.27;15.23;;;-1.30;99.90;;;;;;5041597;28;20191;-48
2023/02/16 00:29:28;;;;;;;26.23;16.33;;;-1.30;99.90;;;;;;5034937;28;20553;-47
2023/02/16 00:31:57;;;;;;;22.03;14.63;;;-1.30;99.90;;;;;;5030235;28;20218;-47
2023/02/16 00:34:30;;;;;;;26.37;16.13;;;-1.20;99.90;;;;;;5035130;28;20287;-48
2023/02/16 00:36:59;;;;;;;26.37;14.40;;;-1.20;99.90;;;;;;5011514;28;20752;-47
2023/02/16 00:39:27;;;;;;;33.73;15.93;;;-1.30;99.90;;;;;;5030421;28;20251;-48
2023/02/16 00:41:56;;;;;;;24.23;15.17;;;-1.40;99.90;;;;;;5042778;28;20297;-48
2023/02/16 00:44:30;;;;;;;24.33;16.10;;;-1.40;99.90;;;;;;5045240;28;20242;-47
2023/02/16 00:47:01;;;;;;;24.33;13.77;;;-1.40;99.90;;;;;;5034682;28;20195;-47
2023/02/16 00:49:28;;;;;;;23.43;13.73;;;-1.50;99.90;;;;;;5035304;28;20298;-48
2023/02/16 00:51:55;;;;;;;21.80;14.70;;;-1.60;99.90;;;;;;5028438;28;20720;-47
2023/02/16 00:54:22;;;;;;;23.03;13.87;;;-1.50;99.90;;;;;;5030062;28;20220;-48
2023/02/16 00:56:49;;;;;;;21.90;13.37;;;-1.50;99.90;;;;;;5038889;28;20250;-47
2023/02/16 00:59:20;;;;;;;33.43;15.97;;;-1.50;99.90;;;;;;5029465;28;20200;-48
2023/02/16 01:01:48;;;;;;;28.53;16.10;;;-1.50;99.90;;;;;;5038075;28;20289;-47
2023/02/16 01:04:21;;;;;;;26.57;14.90;;;-1.50;99.90;;;;;;5031728;28;20261;-48
2023/02/16 01:12:20;;;;;;;33.27;16.67;;;-1.60;99.90;;;;;;5034586;28;20224;-47
2023/02/16 01:14:52;;;;;;;23.10;15.03;;;-1.60;99.90;;;;;;5028229;28;20231;-47
2023/02/16 01:17:20;;;;;;;25.90;15.37;;;-1.60;99.90;;;;;;5040313;28;20204;-48
2023/02/16 01:19:48;;;;;;;32.73;16.57;;;-1.60;99.90;;;;;;5034552;28;20673;-47
2023/02/16 01:22:15;;;;;;;22.67;14.27;;;-1.60;99.90;;;;;;5030190;28;20297;-47
2023/02/16 01:24:42;;;;;;;25.60;16.10;;;-1.60;99.90;;;;;;5042306;28;20202;-48
2023/02/16 01:27:12;;;;;;;24.70;14.83;;;-1.60;99.90;;;;;;5044178;28;20257;-47
2023/02/16 01:29:39;;;;;;;27.70;17.03;;;-1.60;99.90;;;;;;5039924;28;20298;-47
2023/02/16 01:32:06;;;;;;;27.07;15.50;;;-1.70;99.90;;;;;;5042273;28;20214;-47
2023/02/16 01:34:33;;;;;;;26.03;15.83;;;-1.80;99.90;;;;;;5030636;28;20220;-47
2023/02/16 01:37:01;;;;;;;24.43;14.17;;;-1.80;99.90;;;;;;5042016;28;20260;-47
2023/02/16 01:39:28;;;;;;;29.33;16.03;;;-1.70;99.90;;;;;;5035490;28;20202;-47
2023/02/16 01:42:07;;;;;;;31.60;16.80;;;-1.70;99.90;;;;;;5036158;28;20280;-47
2023/02/16 01:44:37;;;;;;;27.77;15.77;;;-1.70;99.90;;;;;;5031960;28;20323;-48
2023/02/16 01:47:12;;;;;;;21.60;14.30;;;-1.80;99.90;;;;;;5038042;28;20207;-48
2023/02/16 01:49:39;;;;;;;30.50;16.43;;;-1.80;99.90;;;;;;5035328;28;20202;-46
2023/02/16 01:52:18;;;;;;;25.10;15.60;;;-1.70;99.90;;;;;;5034888;28;20277;-48
2023/02/16 01:54:51;;;;;;;21.67;14.13;;;-1.70;99.90;;;;;;5042672;28;20571;-47
2023/02/16 01:57:27;;;;;;;29.80;15.67;;;-1.70;99.90;;;;;;5039842;28;20271;-47
2023/02/16 02:00:15;;;;;;;31.03;15.97;;;-1.60;99.90;;;;;;5039030;28;20212;-47
2023/02/16 02:02:45;;;;;;;40.40;18.07;;;-1.50;99.90;;;;;;5037927;28;20215;-47
2023/02/16 02:05:36;;;;;;;32.73;17.20;;;-1.40;99.90;;;;;;5041814;28;20615;-47
2023/02/16 02:08:26;;;;;;;31.90;17.13;;;-1.20;99.90;;;;;;5029935;28;20266;-47
2023/02/16 02:11:05;;;;;;;40.23;17.27;;;-1.10;99.90;;;;;;5032809;28;20224;-47
2023/02/16 02:13:40;;;;;;;35.13;18.33;;;-1.00;99.90;;;;;;5032508;28;20228;-47
2023/02/16 02:16:08;;;;;;;34.43;18.17;;;-0.90;99.90;;;;;;5037290;28;20629;-48
2023/02/16 02:18:35;;;;;;;74.83;20.40;;;-0.70;99.90;;;;;;5043595;28;20207;-48
2023/02/16 02:24:38;;;;;;;43.57;19.23;;;-0.50;99.90;;;;;;5031886;28;20292;-48
2023/02/16 02:27:18;;;;;;;38.90;18.27;;;-0.40;99.90;;;;;;5036736;28;20199;-48
2023/02/16 02:30:16;;;;;;;28.50;16.30;;;-0.40;99.90;;;;;;5034910;28;20218;-48
2023/02/16 02:33:02;;;;;;;31.17;16.73;;;-0.30;99.90;;;;;;5041142;28;20245;-48
2023/02/16 02:35:43;;;;;;;36.57;19.53;;;-0.30;99.90;;;;;;5029299;28;20190;-48
2023/02/16 02:38:16;;;;;;;69.90;20.97;;;-0.30;99.90;;;;;;5033971;28;20243;-47
2023/02/16 02:40:53;;;;;;;29.40;17.93;;;-0.20;99.90;;;;;;5031758;28;20220;-48
2023/02/16 02:43:24;;;;;;;33.73;18.23;;;-0.10;99.90;;;;;;5045179;28;20191;-48
2023/02/16 02:45:56;;;;;;;79.43;20.97;;;-0.10;99.90;;;;;;5031985;28;20204;-47
2023/02/16 02:48:23;;;;;;;61.50;21.10;;;-0.20;99.90;;;;;;5031671;28;20203;-47
2023/02/16 02:53:42;;;;;;;33.07;19.77;;;-0.20;99.90;;;;;;5029818;28;20248;-48
2023/02/16 03:01:54;;;;;;;29.30;17.13;;;-0.30;99.90;;;;;;5032909;28;20254;-48
2023/02/16 03:04:25;;;;;;;53.00;18.93;;;-0.30;99.90;;;;;;5039795;28;20653;-48
2023/02/16 03:06:56;;;;;;;42.83;19.17;;;-0.30;99.90;;;;;;5041552;28;20239;-48
2023/02/16 03:09:24;;;;;;;42.60;20.07;;;-0.30;99.90;;;;;;5031526;28;20204;-47
2023/02/16 03:14:44;;;;;;;60.60;19.30;;;-0.40;99.90;;;;;;5031479;28;20282;-47
2023/02/16 03:31:12;;;;;;;31.77;17.33;;;-0.50;99.90;;;;;;5030387;28;20231;-48
2023/02/16 03:33:39;;;;;;;36.93;18.37;;;-0.60;99.90;;;;;;5035036;28;20262;-48
2023/02/16 03:36:08;;;;;;;63.00;19.40;;;-0.70;99.90;;;;;;5027012;28;20572;-48
2023/02/16 03:38:36;;;;;;;29.70;17.13;;;-0.70;99.90;;;;;;5038637;28;20206;-48
2023/02/16 03:41:04;;;;;;;69.83;20.40;;;-0.70;99.90;;;;;;5043500;28;20222;-48
2023/02/16 03:43:32;;;;;;;31.10;17.53;;;-0.70;99.90;;;;;;5041996;28;20252;-47
2023/02/16 03:45:59;;;;;;;31.47;16.50;;;-0.60;99.90;;;;;;5030392;28;20199;-48
2023/02/16 03:48:27;;;;;;;40.97;17.77;;;-0.60;99.90;;;;;;5030309;28;20203;-48
2023/02/16 03:50:54;;;;;;;32.43;18.17;;;-0.70;99.90;;;;;;5034043;28;20999;-47
2023/02/16 03:53:21;;;;;;;28.90;17.07;;;-0.70;99.90;;;;;;5029954;28;20659;-48
2023/02/16 03:55:49;;;;;;;24.37;16.20;;;-0.70;99.90;;;;;;5045318;28;20203;-48
2023/02/16 03:58:18;;;;;;;70.77;18.13;;;-0.70;99.90;;;;;;5038608;28;20269;-47
2023/02/16 04:00:45;;;;;;;39.93;18.73;;;-0.90;99.90;;;;;;5027588;28;20288;-48
2023/02/16 04:03:12;;;;;;;63.50;18.43;;;-0.90;99.90;;;;;;5030223;28;20258;-48
2023/02/16 04:05:41;;;;;;;45.63;18.23;;;-0.90;99.90;;;;;;5031619;28;20748;-48
2023/02/16 04:08:09;;;;;;;22.03;14.67;;;-1.00;99.90;;;;;;5037852;28;20200;-48
2023/02/16 04:10:38;;;;;;;31.30;15.13;;;-0.90;99.90;;;;;;5039573;28;20220;-48
2023/02/16 04:13:04;;;;;;;27.87;16.90;;;-0.90;99.90;;;;;;5031373;28;20199;-47
2023/02/16 04:15:32;;;;;;;46.40;18.57;;;-0.90;99.90;;;;;;5031507;28;20224;-48
2023/02/16 04:17:59;;;;;;;30.60;17.83;;;-0.80;99.90;;;;;;5018731;28;20272;-48
2023/02/16 04:20:28;;;;;;;42.10;18.40;;;-0.80;99.90;;;;;;5029209;28;20476;-48
2023/02/16 04:22:57;;;;;;;68.47;18.97;;;-0.80;99.90;;;;;;5032021;28;20196;-48
2023/02/16 04:25:24;;;;;;;37.63;19.50;;;-0.90;99.90;;;;;;5029051;28;20190;-48
2023/02/16 04:27:52;;;;;;;30.53;17.60;;;-1.00;99.90;;;;;;5029288;28;20249;-47
2023/02/16 04:30:21;;;;;;;42.17;18.87;;;-1.00;99.90;;;;;;5036291;28;20707;-48
2023/02/16 04:32:48;;;;;;;44.60;19.87;;;-1.00;99.90;;;;;;5036882;28;20203;-46
2023/02/16 04:35:15;;;;;;;31.83;18.10;;;-1.10;99.90;;;;;;5030044;28;20239;-47
2023/02/16 04:37:42;;;;;;;41.97;20.27;;;-1.10;99.90;;;;;;5030426;28;20244;-47
2023/02/16 04:40:13;;;;;;;37.40;19.40;;;-1.10;99.90;;;;;;5031338;28;20246;-48
2023/02/16 04:42:40;;;;;;;35.27;18.23;;;-1.20;99.90;;;;;;5042307;28;20204;-48
2023/02/16 04:45:08;;;;;;;33.90;17.80;;;-1.30;99.90;;;;;;5035279;28;20197;-47
2023/02/16 04:47:35;;;;;;;31.23;17.00;;;-1.30;99.90;;;;;;5038957;28;20196;-47
2023/02/16 04:50:02;;;;;;;44.20;16.97;;;-1.40;99.90;;;;;;5046541;28;20203;-48
2023/02/16 04:52:29;;;;;;;49.10;18.17;;;-1.50;99.90;;;;;;5033911;28;20659;-48
2023/02/16 04:54:56;;;;;;;40.73;17.80;;;-1.40;99.90;;;;;;5041129;28;20222;-48
2023/02/16 04:57:25;;;;;;;27.77;17.00;;;-1.50;99.90;;;;;;5045095;28;20204;-48
2023/02/16 04:59:52;;;;;;;37.50;17.53;;;-1.50;99.90;;;;;;5034902;28;20208;-48
2023/02/16 05:02:19;;;;;;;25.63;15.73;;;-1.50;99.90;;;;;;5029893;28;20277;-48
2023/02/16 05:04:46;;;;;;;28.53;15.17;;;-1.50;99.90;;;;;;5033450;28;20203;-48
2023/02/16 05:07:13;;;;;;;30.23;15.20;;;-1.50;99.90;;;;;;5045358;28;20228;-47
2023/02/16 05:09:40;;;;;;;23.47;14.43;;;-1.50;99.90;;;;;;5034624;28;20205;-48
2023/02/16 05:14:53;;;;;;;32.07;15.13;;;-1.60;99.90;;;;;;5045432;28;20234;-48
2023/02/16 05:17:23;;;;;;;30.73;15.70;;;-1.60;99.90;;;;;;5050116;28;20208;-48
2023/02/16 05:19:51;;;;;;;37.57;15.23;;;-1.70;99.90;;;;;;5055512;22;20718;-48
2023/02/16 05:22:19;;;;;;;36.93;15.77;;;-1.70;99.90;;;;;;5031968;28;20552;-48
2023/02/16 05:24:46;;;;;;;32.50;16.13;;;-1.80;99.90;;;;;;5036421;28;20201;-48
2023/02/16 05:27:15;;;;;;;27.27;14.53;;;-1.90;99.90;;;;;;5043411;28;20199;-48
2023/02/16 05:29:42;;;;;;;37.50;18.93;;;-1.90;99.90;;;;;;5026991;28;20295;-48
2023/02/16 05:32:11;;;;;;;30.17;17.60;;;-1.90;99.90;;;;;;5009552;28;20255;-49
2023/02/16 05:34:38;;;;;;;27.17;17.47;;;-2.00;99.90;;;;;;5017740;28;20607;-48
2023/02/16 05:37:05;;;;;;;26.63;15.10;;;-2.00;99.90;;;;;;5024278;28;20210;-48
2023/02/16 05:39:33;;;;;;;25.80;15.67;;;-2.00;99.90;;;;;;5021934;28;20228;-48
2023/02/16 05:42:00;;;;;;;24.80;15.03;;;-2.10;99.90;;;;;;5006302;28;20254;-48
2023/02/16 05:44:27;;;;;;;23.80;15.40;;;-2.10;99.90;;;;;;5007260;28;20904;-48
2023/02/16 05:46:54;;;;;;;21.50;13.47;;;-2.10;99.90;;;;;;5010313;28;20577;-48
2023/02/16 05:49:22;;;;;;;22.00;14.30;;;-2.10;99.90;;;;;;5014303;28;20582;-48
2023/02/16 05:51:49;;;;;;;20.80;13.37;;;-2.20;99.90;;;;;;5010732;28;20334;-48
2023/02/16 05:54:17;;;;;;;23.37;13.70;;;-2.20;99.90;;;;;;5012803;28;20231;-48
2023/02/16 05:56:45;;;;;;;19.13;12.10;;;-2.20;99.90;;;;;;5011726;28;20203;-49
2023/02/16 05:59:12;;;;;;;22.93;14.70;;;-2.20;99.90;;;;;;5011658;28;20320;-48
2023/02/16 06:01:39;;;;;;;23.03;14.70;;;-2.20;99.90;;;;;;5011669;28;20628;-49
2023/02/16 06:04:07;;;;;;;17.57;13.37;;;-2.20;99.90;;;;;;5024290;28;20191;-48
2023/02/16 06:06:37;;;;;;;24.03;14.80;;;-2.20;99.90;;;;;;5033745;28;20275;-48
2023/02/16 06:09:04;;;;;;;25.10;15.23;;;-2.20;99.90;;;;;;5024027;28;20536;-49
2023/02/16 06:11:37;;;;;;;21.17;13.80;;;-2.20;99.90;;;;;;5002641;28;20260;-48
2023/02/16 06:14:06;;;;;;;21.35;15.57;;;-2.20;99.90;;;;;;5019359;28;20439;-49
2023/02/16 06:16:33;;;;;;;21.93;13.40;;;-2.20;99.90;;;;;;4999328;28;20275;-49
2023/02/16 06:19:00;;;;;;;19.77;13.33;;;-2.10;99.90;;;;;;5017491;28;20232;-49
2023/02/16 06:21:28;;;;;;;23.40;14.97;;;-2.20;99.90;;;;;;5028353;28;20200;-48
2023/02/16 06:23:57;;;;;;;20.97;13.93;;;-2.10;99.90;;;;;;5022662;28;20270;-48
2023/02/16 06:26:24;;;;;;;21.13;13.57;;;-2.10;99.90;;;;;;5023888;28;20274;-48
2023/02/16 06:28:52;;;;;;;23.67;14.37;;;-2.10;99.90;;;;;;5031752;28;20235;-49
2023/02/16 06:31:19;;;;;;;22.50;14.37;;;-2.10;99.90;;;;;;5019609;28;20460;-49
2023/02/16 06:33:46;;;;;;;25.03;14.27;;;-2.20;99.90;;;;;;5006366;28;20212;-48
2023/02/16 06:36:14;;;;;;;21.63;13.90;;;-2.20;99.90;;;;;;5020372;28;20597;-47
2023/02/16 06:38:41;;;;;;;27.80;15.77;;;-2.20;99.90;;;;;;5016961;28;20229;-48
2023/02/16 06:41:10;;;;;;;29.87;18.03;;;-2.10;99.90;;;;;;5021846;28;20207;-49
2023/02/16 06:43:37;;;;;;;33.37;18.87;;;-2.10;99.90;;;;;;5011792;28;20678;-48
2023/02/16 06:46:04;;;;;;;28.27;16.40;;;-2.10;99.90;;;;;;5011640;28;20608;-48
2023/02/16 06:48:31;;;;;;;27.50;16.03;;;-2.10;99.90;;;;;;5019494;28;20663;-48
2023/02/16 06:50:58;;;;;;;26.90;15.97;;;-2.10;99.90;;;;;;4993002;28;20307;-48
2023/02/16 06:53:25;;;;;;;29.90;18.20;;;-2.00;99.90;;;;;;5001289;28;20684;-47
2023/02/16 06:55:52;;;;;;;25.17;17.73;;;-1.90;99.90;;;;;;5022437;28;20306;-48
2023/02/16 06:58:20;;;;;;;38.27;21.30;;;-1.90;99.90;;;;;;5031179;28;20288;-48
2023/02/16 07:00:47;;;;;;;32.80;17.80;;;-1.80;99.90;;;;;;5027724;28;20202;-49
2023/02/16 07:03:14;;;;;;;29.63;17.00;;;-1.70;99.90;;;;;;5019003;28;20217;-49
2023/02/16 07:05:42;;;;;;;31.53;17.83;;;-1.60;99.90;;;;;;5026348;28;20266;-49
2023/02/16 07:08:10;;;;;;;33.90;18.70;;;-1.50;99.90;;;;;;5006077;28;20217;-49
2023/02/16 07:10:37;;;;;;;27.27;17.00;;;-1.40;99.90;;;;;;5011522;28;20312;-48
2023/02/16 07:13:04;;;;;;;26.03;16.83;;;-1.20;99.90;;;;;;5011229;28;20664;-49
2023/02/16 07:15:33;;;;;;;33.40;18.50;;;-0.90;99.90;;;;;;5010513;28;20274;-49
2023/02/16 07:18:00;;;;;;;30.77;16.70;;;-0.80;99.90;;;;;;5005517;28;20203;-49
2023/02/16 07:20:27;;;;;;;22.23;14.30;;;-0.80;99.90;;;;;;5013156;28;20237;-50
2023/02/16 07:22:54;;;;;;;21.53;14.20;;;-0.60;99.90;;;;;;5011301;28;20195;-49
2023/02/16 07:25:23;;;;;;;19.30;13.13;;;-0.60;99.90;;;;;;5004419;28;20258;-48
2023/02/16 07:27:50;;;;;;;21.10;13.83;;;-0.70;99.90;;;;;;5002719;28;20208;-49
2023/02/16 07:30:18;;;;;;;22.17;13.53;;;-0.60;99.90;;;;;;5020883;28;20884;-49
2023/02/16 07:32:46;;;;;;;22.10;13.50;;;-0.70;99.90;;;;;;5010874;28;20206;-50
2023/02/16 07:35:13;;;;;;;26.77;14.37;;;-0.60;99.90;;;;;;5018899;28;20651;-50
2023/02/16 07:37:40;;;;;;;20.60;13.87;;;-0.50;99.90;;;;;;5010038;28;20208;-48
2023/02/16 07:40:08;;;;;;;22.27;14.00;;;-0.40;99.90;;;;;;5018851;28;20230;-49
2023/02/16 07:42:35;;;;;;;21.63;13.07;;;-0.30;99.90;;;;;;5011154;28;20247;-48
2023/02/16 07:45:02;;;;;;;22.93;13.87;;;-0.30;99.90;;;;;;5010335;28;20748;-49
2023/02/16 07:47:33;;;;;;;21.63;13.63;;;-0.20;99.90;;;;;;5019878;28;20215;-49
2023/02/16 07:50:01;;;;;;;19.70;13.80;;;-0.20;99.90;;;;;;5006173;28;20222;-48
2023/02/16 07:52:32;;;;;;;20.43;14.27;;;-0.10;99.90;;;;;;5012869;28;20199;-48
2023/02/16 07:54:59;;;;;;;18.90;13.87;;;0.20;99.90;;;;;;5014583;28;20217;-49
2023/02/16 07:57:27;;;;;;;20.47;14.93;;;0.20;99.90;;;;;;5030550;28;20296;-49
2023/02/16 07:59:54;;;;;;;22.80;14.47;;;0.30;99.90;;;;;;5030515;28;20229;-49
2023/02/16 08:02:22;;;;;;;23.63;16.13;;;0.50;99.90;;;;;;5007294;28;20674;-50
2023/02/16 08:04:51;;;;;;;21.67;16.03;;;0.70;99.90;;;;;;5010616;28;20812;-50
2023/02/16 08:07:20;;;;;;;22.00;15.60;;;0.80;99.90;;;;;;5010284;28;20206;-48
2023/02/16 08:09:47;;;;;;;27.57;16.80;;;0.90;99.90;;;;;;5005845;28;20595;-48
2023/02/16 08:12:15;;;;;;;27.87;18.40;;;1.00;99.90;;;;;;5010395;28;20343;-47
2023/02/16 08:14:43;;;;;;;27.67;17.43;;;1.30;99.90;;;;;;5004032;28;20206;-48
2023/02/16 08:17:10;;;;;;;25.17;17.23;;;1.70;99.90;;;;;;4990646;28;20679;-48
2023/02/16 08:19:37;;;;;;;22.77;16.77;;;2.20;99.90;;;;;;4993066;28;20621;-49
2023/02/16 08:22:05;;;;;;;23.40;15.93;;;2.50;99.90;;;;;;4995248;28;20267;-49
2023/02/16 08:24:33;;;;;;;23.17;16.57;;;2.80;99.90;;;;;;5019776;28;20672;-49
2023/02/16 08:27:02;;;;;;;28.67;17.77;;;3.20;99.90;;;;;;5012626;28;20201;-49
2023/02/16 08:29:30;;;;;;;26.23;18.67;;;3.70;99.90;;;;;;5018232;28;20225;-49
2023/02/16 08:31:57;;;;;;;26.83;15.97;;;3.90;99.90;;;;;;5006139;28;20216;-49
2023/02/16 08:34:25;;;;;;;28.13;16.30;;;4.20;99.90;;;;;;5006138;28;20204;-49
2023/02/16 08:36:55;;;;;;;24.43;17.00;;;4.30;99.90;;;;;;5024218;28;20223;-49
2023/02/16 08:39:25;;;;;;;25.33;16.67;;;3.90;99.90;;;;;;5029808;28;20232;-49
2023/02/16 08:41:54;;;;;;;29.57;18.33;;;3.90;99.90;;;;;;5024365;28;20195;-49
2023/02/16 08:44:23;;;;;;;29.33;18.23;;;3.60;99.90;;;;;;5014253;28;20205;-48
2023/02/16 08:46:52;;;;;;;28.07;17.23;;;3.80;99.90;;;;;;5014114;28;20199;-50
2023/02/16 08:49:21;;;;;;;27.37;17.87;;;4.10;99.90;;;;;;5011760;28;20235;-48
2023/02/16 08:51:50;;;;;;;25.60;17.33;;;4.20;99.90;;;;;;5012302;28;20199;-48
2023/02/16 08:54:19;;;;;;;26.63;16.50;;;4.00;99.90;;;;;;5013869;28;20604;-49
2023/02/16 08:56:48;;;;;;;26.60;16.70;;;4.20;99.90;;;;;;5014014;28;20701;-49
2023/02/16 08:59:18;;;;;;;25.30;16.93;;;4.50;99.90;;;;;;5021749;28;20221;-49
2023/02/16 09:01:46;;;;;;;23.97;16.20;;;4.70;99.90;;;;;;5013496;28;20292;-49
2023/02/16 09:04:14;;;;;;;24.50;16.13;;;4.80;99.90;;;;;;5013739;28;20216;-49
2023/02/16 09:06:43;;;;;;;25.63;16.07;;;5.30;99.90;;;;;;4999535;28;20558;-49
2023/02/16 09:09:12;;;;;;;23.40;15.10;;;5.80;99.90;;;;;;4999413;28;20306;-49
2023/02/16 09:11:39;;;;;;;23.03;14.70;;;6.40;99.90;;;;;;5019913;28;20278;-49
2023/02/16 09:14:08;;;;;;;20.50;14.73;;;7.00;99.90;;;;;;5032801;28;20311;-49
2023/02/16 09:16:38;;;;;;;17.77;14.67;;;7.70;99.90;;;;;;5032767;28;20256;-49
2023/02/16 09:19:06;;;;;;;22.40;17.10;;;8.70;99.90;;;;;;5032616;28;20236;-49
2023/02/16 09:21:33;;;;;;;20.20;15.33;;;9.40;99.90;;;;;;5032796;28;20231;-49
2023/02/16 09:24:02;;;;;;;21.63;14.67;;;9.80;99.90;;;;;;5009500;28;20289;-49
2023/02/16 09:26:32;;;;;;;18.20;14.53;;;10.10;99.90;;;;;;5024192;28;20192;-50
2023/02/16 09:29:00;;;;;;;23.00;15.93;;;10.70;99.90;;;;;;5027801;28;20229;-49
2023/02/16 09:31:29;;;;;;;17.07;14.67;;;10.90;99.90;;;;;;5011616;28;20209;-50
2023/02/16 09:34:01;;;;;;;20.70;14.67;;;10.60;99.90;;;;;;5012553;28;20206;-49
2023/02/16 09:36:28;;;;;;;17.87;14.27;;;10.60;99.90;;;;;;5012674;28;20244;-49
2023/02/16 09:38:56;;;;;;;19.30;16.07;;;10.60;99.90;;;;;;5006726;28;20298;-47
2023/02/16 09:41:47;;;;;;;20.27;15.30;;;10.80;99.90;;;;;;5015839;28;20197;-48
2023/02/16 09:44:24;;;;;;;20.87;14.47;;;10.70;99.90;;;;;;5012600;28;20209;-48
2023/02/16 09:46:52;;;;;;;19.47;13.87;;;11.00;99.90;;;;;;5012519;28;20219;-49
2023/02/16 09:49:27;;;;;;;18.97;13.83;;;10.30;99.90;;;;;;5012144;28;20233;-51
2023/02/16 09:52:02;;;;;;;16.20;13.60;;;10.60;99.90;;;;;;5012624;28;20208;-49
2023/02/16 09:54:41;;;;;;;16.83;12.43;;;10.70;99.90;;;;;;5011394;28;20208;-50
2023/02/16 09:57:18;;;;;;;17.53;14.07;;;11.00;99.90;;;;;;5007552;28;20216;-49
2023/02/16 09:59:52;;;;;;;17.50;13.37;;;11.70;99.90;;;;;;5031933;28;20230;-49
2023/02/16 10:02:43;;;;;;;20.53;14.93;;;11.40;99.90;;;;;;5031915;28;20205;-50
2023/02/16 10:05:27;;;;;;;19.00;14.33;;;11.60;99.90;;;;;;5032231;28;20209;-49
2023/02/16 10:08:01;;;;;;;18.77;13.57;;;11.30;99.90;;;;;;5031602;28;20212;-49
2023/02/16 10:10:42;;;;;;;16.03;12.83;;;11.50;99.90;;;;;;5031816;28;20391;-49
2023/02/16 10:13:19;;;;;;;14.87;11.83;;;11.00;99.90;;;;;;5016989;28;20239;-49
2023/02/16 10:15:48;;;;;;;18.60;13.20;;;10.70;99.90;;;;;;5028640;28;20222;-49
2023/02/16 10:18:25;;;;;;;15.87;12.50;;;10.80;99.90;;;;;;5031476;28;20262;-50
2023/02/16 10:20:56;;;;;;;15.60;12.70;;;11.70;99.90;;;;;;5031723;28;20720;-49
2023/02/16 10:23:37;;;;;;;19.13;11.97;;;12.10;99.90;;;;;;5031785;28;20619;-49
2023/02/16 10:26:16;;;;;;;14.43;12.63;;;12.30;99.90;;;;;;5031661;28;20284;-49
2023/02/16 10:28:47;;;;;;;17.17;13.37;;;12.30;99.90;;;;;;5028784;28;20225;-50
2023/02/16 10:31:20;;;;;;;17.30;12.40;;;11.80;99.90;;;;;;5018315;28;20270;-49
2023/02/16 10:34:00;;;;;;;18.27;12.90;;;11.90;99.90;;;;;;5031587;28;20655;-47
2023/02/16 10:36:41;;;;;;;15.00;12.17;;;12.00;99.90;;;;;;5031392;28;20294;-50
2023/02/16 10:39:19;;;;;;;15.20;12.03;;;12.30;99.90;;;;;;5031104;28;20304;-49
2023/02/16 10:41:51;;;;;;;15.53;12.07;;;11.80;99.90;;;;;;5031093;28;20217;-50
2023/02/16 10:44:23;;;;;;;17.27;12.53;;;11.90;99.90;;;;;;5031421;28;20210;-49
2023/02/16 10:46:58;;;;;;;13.80;12.40;;;12.00;99.90;;;;;;5022625;28;20267;-50
2023/02/16 10:49:27;;;;;;;14.53;11.40;;;11.70;99.90;;;;;;5022058;28;20741;-49
2023/02/16 10:51:56;;;;;;;17.37;12.53;;;11.10;99.90;;;;;;5022433;28;20212;-50
2023/02/16 10:54:26;;;;;;;17.90;12.87;;;11.20;99.90;;;;;;5022122;28;20654;-50
2023/02/16 10:56:58;;;;;;;17.03;13.70;;;11.40;99.90;;;;;;5031054;28;20230;-50
2023/02/16 10:59:30;;;;;;;18.53;13.97;;;11.30;99.90;;;;;;5011645;28;20657;-50
2023/02/16 11:01:59;;;;;;;14.07;12.07;;;10.90;99.90;;;;;;5018129;28;20281;-49
2023/02/16 11:04:38;;;;;;;18.37;12.77;;;10.50;99.90;;;;;;5017595;28;20209;-49
2023/02/16 11:07:08;;;;;;;16.70;13.33;;;9.80;99.90;;;;;;4991735;28;20272;-49
2023/02/16 11:09:36;;;;;;;19.10;13.47;;;9.70;99.90;;;;;;4994008;28;20281;-50
2023/02/16 11:12:15;;;;;;;18.57;13.47;;;9.20;99.90;;;;;;5011060;28;20210;-47
2023/02/16 11:14:49;;;;;;;21.90;14.63;;;8.90;99.90;;;;;;5010783;28;20205;-49
2023/02/16 11:17:18;;;;;;;18.77;14.83;;;8.80;99.90;;;;;;5009798;28;20307;-49
2023/02/16 11:19:51;;;;;;;20.10;15.30;;;8.80;99.90;;;;;;5049813;22;20286;-48
2023/02/16 11:22:29;;;;;;;18.17;13.43;;;8.70;99.90;;;;;;5039931;28;20205;-48
2023/02/16 11:24:58;;;;;;;18.47;13.93;;;8.70;99.90;;;;;;5033517;28;20627;-49
2023/02/16 11:27:25;;;;;;;20.50;15.07;;;8.50;99.90;;;;;;5043741;28;20580;-48
2023/02/16 11:30:21;;;;;;;25.93;16.83;;;8.20;99.90;;;;;;5051943;28;20614;-48
2023/02/16 11:32:48;;;;;;;21.90;15.77;;;8.10;99.90;;;;;;5038936;28;20207;-49
2023/02/16 11:35:16;;;;;;;24.13;16.27;;;7.80;99.90;;;;;;5026413;28;20218;-48
2023/02/16 11:37:48;;;;;;;23.33;15.50;;;7.80;99.90;;;;;;5039636;28;20227;-48
2023/02/16 11:40:22;;;;;;;23.20;15.77;;;7.80;99.90;;;;;;5031489;28;20227;-47
2023/02/16 11:42:51;;;;;;;22.13;15.43;;;7.90;99.90;;;;;;5032086;28;20216;-49
2023/02/16 11:45:26;;;;;;;20.67;15.57;;;8.10;99.90;;;;;;5031571;28;20267;-48
2023/02/16 11:47:55;;;;;;;21.40;15.33;;;8.20;99.90;;;;;;5032973;28;20288;-48
2023/02/16 11:50:27;;;;;;;20.70;14.17;;;8.20;99.90;;;;;;5042596;28;20298;-48
2023/02/16 11:52:58;;;;;;;17.53;12.87;;;7.90;99.90;;;;;;5011445;28;20207;-48
2023/02/16 11:55:31;;;;;;;23.07;14.90;;;7.80;99.90;;;;;;5025781;28;20203;-49
2023/02/16 11:58:15;;;;;;;26.47;14.87;;;7.60;99.90;;;;;;5034725;28;20223;-48
2023/02/16 12:00:54;;;;;;;21.33;15.37;;;7.30;99.90;;;;;;5034629;28;20228;-49
2023/02/16 12:03:48;;;;;;;17.03;13.00;;;7.20;99.90;;;;;;5045002;28;20208;-48
2023/02/16 12:06:32;;;;;;;17.60;13.77;;;7.20;99.90;;;;;;5034050;28;20192;-48
2023/02/16 12:09:19;;;;;;;15.70;12.83;;;7.40;99.90;;;;;;5033935;28;20203;-48
2023/02/16 12:11:56;;;;;;;16.77;12.33;;;7.60;99.90;;;;;;5042461;28;20199;-49
2023/02/16 12:14:34;;;;;;;16.77;13.23;;;7.50;99.90;;;;;;5043695;28;20280;-48
2023/02/16 12:17:12;;;;;;;21.40;14.27;;;7.50;99.90;;;;;;5025853;28;20222;-49
2023/02/16 12:19:42;;;;;;;18.30;13.07;;;7.60;99.90;;;;;;5042049;28;20596;-48
2023/02/16 12:22:23;;;;;;;14.90;11.73;;;7.60;99.90;;;;;;5027225;28;20209;-48
2023/02/16 12:25:04;;;;;;;21.40;11.83;;;7.40;99.90;;;;;;5041453;28;20249;-49
2023/02/16 12:27:39;;;;;;;17.93;12.97;;;7.50;99.90;;;;;;5035860;28;20199;-49
2023/02/16 12:30:21;;;;;;;19.43;13.17;;;7.60;99.90;;;;;;5025666;28;20770;-49
2023/02/16 12:33:01;;;;;;;18.20;13.60;;;7.60;99.90;;;;;;5033002;28;20244;-48
2023/02/16 12:35:42;;;;;;;19.00;13.03;;;7.60;99.90;;;;;;5026812;28;20242;-48
2023/02/16 12:38:25;;;;;;;22.73;13.97;;;7.60;99.90;;;;;;5030497;28;20294;-48
2023/02/16 12:41:04;;;;;;;20.47;14.43;;;7.60;99.90;;;;;;5030498;28;20226;-48
2023/02/16 12:43:37;;;;;;;20.33;14.17;;;7.30;99.90;;;;;;5042232;28;20242;-48
2023/02/16 12:46:12;;;;;;;18.23;12.83;;;7.30;99.90;;;;;;5037220;28;20264;-49
2023/02/16 12:48:45;;;;;;;17.00;13.03;;;7.40;99.90;;;;;;5047608;28;20222;-47
2023/02/16 12:51:19;;;;;;;21.20;14.37;;;7.50;99.90;;;;;;5032816;28;20879;-47
2023/02/16 12:53:50;;;;;;;17.47;12.97;;;7.60;99.90;;;;;;5038378;28;20207;-49
2023/02/16 12:56:24;;;;;;;17.73;13.50;;;7.60;99.90;;;;;;5033263;28;20574;-48
2023/02/16 12:58:56;;;;;;;19.87;13.97;;;7.50;99.90;;;;;;5036928;28;20258;-48
2023/02/16 13:01:28;;;;;;;17.67;13.90;;;7.60;99.90;;;;;;5030433;28;20228;-48
2023/02/16 13:03:59;;;;;;;21.10;14.70;;;7.60;99.90;;;;;;5030363;28;20684;-48
2023/02/16 13:06:32;;;;;;;20.37;13.40;;;7.70;99.90;;;;;;5034835;28;20624;-48
2023/02/16 13:09:11;;;;;;;18.47;13.47;;;7.70;99.90;;;;;;5038229;28;20207;-48
2023/02/16 13:11:46;;;;;;;18.33;13.13;;;7.60;99.90;;;;;;5034426;28;20278;-48
2023/02/16 13:14:18;;;;;;;15.27;12.77;;;7.60;99.90;;;;;;5030154;28;20269;-47
2023/02/16 13:16:50;;;;;;;15.17;12.63;;;7.40;99.90;;;;;;5017258;28;20584;-47
2023/02/16 13:19:17;;;;;;;18.10;13.00;;;7.50;99.90;;;;;;5033668;28;20215;-48
2023/02/16 13:22:16;;;;;;;18.10;13.30;;;7.40;99.90;;;;;;5033828;28;20235;-48
2023/02/16 13:24:55;;;;;;;19.80;13.63;;;7.60;99.90;;;;;;5013163;28;20840;-47
2023/02/16 13:27:42;;;;;;;17.43;13.53;;;7.60;99.90;;;;;;5036968;28;20192;-48
2023/02/16 13:30:48;;;;;;;21.27;13.60;;;7.70;99.90;;;;;;5027258;28;20339;-48